Airport View

Enter AWOS ICAO identifier for current METAR.

ex. KFNL

KLHM 221815Z AUTO 00000KT 10SM CLR 30/14 A2992 RMK AO1

22 Jul 2019 18:37

Frequency: 124.25

Phone: 916-645-0698

Other Area AWOS: KAUN - KBAB - KMCC - KMYV

TAF KBAB 221100Z 2211/2317 VRB06KT 9999 FEW150 QNH2983INS BECMG 2217/2218 22009KT 9999 SKC QNH2979INS BECMG 2309/2310 18009KT 9999 SKC QNH2987INS TX37/2223Z TN18/2213Z